La rose des vents
Donnes mto: Semaine 10/09/07 - 16/09/07 (S 37)
Date Horaire Temp. E. Hum. E. P.atmo. Pluie Vent 1mn Direction Ensoleilleme Ev.Tr. Solaire P. de rose Temp au vent Rafales
10/09/2007 00:00 17,1 C 89 % 1012,2 hPa 0,0 l/m 1,8 km/h (1 Bft) N 0,00 h 0,025 mm 0 W/m 15,2 C 17,1 C 3,8 km/h (1 Bft)
10/09/2007 01:00 17,4 C 87 % 1012,2 hPa 0,0 l/m 2,2 km/h (1 Bft) N-NE 0,00 h 0,025 mm 0 W/m 15,3 C 17,4 C 4,4 km/h (1 Bft)
10/09/2007 02:00 17,9 C 83 % 1012,6 hPa 0,0 l/m 3,8 km/h (1 Bft) N-NE 0,00 h 0,025 mm 0 W/m 15,1 C 17,9 C 6,3 km/h (2 Bft)
10/09/2007 03:00 18,1 C 80 % 1012,4 hPa 0,0 l/m 3,5 km/h (1 Bft) N-NE 0,00 h 0,025 mm 0 W/m 14,5 C 18,1 C 6,0 km/h (2 Bft)
10/09/2007 04:00 18,0 C 77 % 1012,5 hPa 0,0 l/m 6,2 km/h (2 Bft) N-NE 0,00 h 0,025 mm 0 W/m 13,9 C 18,0 C 9,6 km/h (2 Bft)
10/09/2007 05:00 18,5 C 71 % 1012,4 hPa 0,0 l/m 1,3 km/h (1 Bft) N 0,00 h 0,051 mm 0 W/m 13,2 C 18,5 C 3,0 km/h (1 Bft)
10/09/2007 06:00 17,6 C 75 % 1012,6 hPa 0,0 l/m 3,5 km/h (1 Bft) SO 0,00 h 0,025 mm 0 W/m 13,0 C 17,6 C 5,1 km/h (1 Bft)
10/09/2007 07:00 16,6 C 78 % 1013,5 hPa 0,0 l/m 1,7 km/h (1 Bft) N-NE 0,00 h 0,025 mm 16 W/m 12,7 C 16,6 C 3,5 km/h (1 Bft)
10/09/2007 08:00 17,9 C 77 % 1014,0 hPa 0,0 l/m 0,7 km/h (0 Bft) N-NE 0,00 h 0,025 mm 68 W/m 13,9 C 17,9 C 2,0 km/h (1 Bft)
10/09/2007 09:00 21,5 C 72 % 1014,3 hPa 0,0 l/m 2,9 km/h (1 Bft) NE 0,95 h 0,051 mm 323 W/m 16,2 C 21,5 C 5,4 km/h (1 Bft)
10/09/2007 10:00 23,5 C 63 % 1014,4 hPa 0,0 l/m 5,0 km/h (1 Bft) E 0,98 h 0,203 mm 504 W/m 16,1 C 23,5 C 8,1 km/h (2 Bft)
10/09/2007 11:00 24,6 C 58 % 1014,7 hPa 0,0 l/m 6,7 km/h (2 Bft) E 0,95 h 0,330 mm 623 W/m 15,8 C 24,6 C 11,0 km/h (2 Bft)
10/09/2007 12:00 25,3 C 56 % 1014,4 hPa 0,0 l/m 9,5 km/h (2 Bft) S 1,00 h 0,432 mm 692 W/m 15,7 C 25,3 C 15,5 km/h (3 Bft)
10/09/2007 13:00 25,6 C 59 % 1014,2 hPa 0,0 l/m 9,6 km/h (2 Bft) S 1,00 h 0,508 mm 717 W/m 17,0 C 25,6 C 16,8 km/h (3 Bft)
10/09/2007 14:00 25,8 C 56 % 1013,8 hPa 0,0 l/m 11,5 km/h (2 Bft) E 1,00 h 0,508 mm 686 W/m 16,5 C 25,8 C 18,2 km/h (3 Bft)
10/09/2007 15:00 25,4 C 54 % 1013,5 hPa 0,0 l/m 10,2 km/h (2 Bft) E 1,00 h 0,533 mm 601 W/m 15,3 C 25,4 C 15,8 km/h (3 Bft)
10/09/2007 16:00 25,1 C 56 % 1013,1 hPa 0,0 l/m 8,3 km/h (2 Bft) E 1,00 h 0,457 mm 466 W/m 15,6 C 25,1 C 13,5 km/h (3 Bft)
10/09/2007 17:00 24,4 C 57 % 1012,5 hPa 0,0 l/m 5,9 km/h (2 Bft) E 1,00 h 0,356 mm 318 W/m 15,3 C 24,4 C 9,3 km/h (2 Bft)
10/09/2007 18:00 23,2 C 60 % 1012,3 hPa 0,0 l/m 8,5 km/h (2 Bft) S 1,00 h 0,254 mm 161 W/m 15,1 C 23,2 C 12,1 km/h (2 Bft)
10/09/2007 19:00 21,7 C 65 % 1012,0 hPa 0,0 l/m 5,6 km/h (1 Bft) S-SO 0,15 h 0,152 mm 31 W/m 14,9 C 21,7 C 7,8 km/h (2 Bft)
10/09/2007 20:00 20,0 C 73 % 1011,7 hPa 0,0 l/m 0,9 km/h (0 Bft) S-SO 0,00 h 0,051 mm 0 W/m 14,9 C 20,0 C 1,6 km/h (1 Bft)
10/09/2007 21:00 19,1 C 76 % 1011,7 hPa 0,0 l/m 0,5 km/h (0 Bft) S-SO 0,00 h 0,000 mm 0 W/m 14,7 C 19,1 C 1,2 km/h (1 Bft)
10/09/2007 22:00 17,9 C 78 % 1011,2 hPa 0,0 l/m 1,4 km/h (1 Bft) SO 0,00 h 0,025 mm 0 W/m 14,0 C 17,9 C 3,4 km/h (1 Bft)
10/09/2007 23:00 17,3 C 82 % 1010,6 hPa 0,0 l/m 1,6 km/h (1 Bft) N-NE 0,00 h 0,025 mm 0 W/m 14,2 C 17,3 C 3,9 km/h (1 Bft)
11/09/2007 00:00 16,9 C 85 % 1009,8 hPa 0,0 l/m 0,4 km/h (0 Bft) N-NE 0,00 h 0,025 mm 0 W/m 14,4 C 16,9 C 1,2 km/h (1 Bft)
11/09/2007 01:00 16,3 C 84 % 1009,1 hPa 0,0 l/m 3,3 km/h (1 Bft) N-NE 0,00 h 0,025 mm 0 W/m 13,7 C 16,3 C 5,3 km/h (1 Bft)
11/09/2007 02:00 16,6 C 82 % 1008,4 hPa 0,0 l/m 2,3 km/h (1 Bft) N-NO 0,00 h 0,025 mm 0 W/m 13,5 C 16,6 C 4,3 km/h (1 Bft)
11/09/2007 03:00 16,7 C 82 % 1007,4 hPa 0,0 l/m 2,0 km/h (1 Bft) NO 0,00 h 0,025 mm 0 W/m 13,7 C 16,7 C 3,7 km/h (1 Bft)
11/09/2007 04:00 16,7 C 85 % 1006,6 hPa 0,0 l/m 3,9 km/h (1 Bft) O-NO 0,00 h 0,025 mm 0 W/m 14,2 C 16,7 C 5,4 km/h (1 Bft)
11/09/2007 05:00 16,0 C 84 % 1006,2 hPa 0,0 l/m 3,9 km/h (1 Bft) O-NO 0,00 h 0,025 mm 0 W/m 13,2 C 16,0 C 5,7 km/h (1 Bft)
11/09/2007 06:00 15,9 C 81 % 1005,9 hPa 0,0 l/m 6,2 km/h (2 Bft) O 0,00 h 0,025 mm 0 W/m 12,7 C 15,9 C 7,8 km/h (2 Bft)
11/09/2007 07:00 16,1 C 78 % 1006,0 hPa 0,0 l/m 4,6 km/h (1 Bft) O-NO 0,03 h 0,025 mm 21 W/m 12,3 C 16,1 C 6,5 km/h (2 Bft)
11/09/2007 08:00 18,0 C 75 % 1006,3 hPa 0,0 l/m 1,4 km/h (1 Bft) NO 0,20 h 0,025 mm 96 W/m 13,4 C 18,0 C 3,0 km/h (1 Bft)
11/09/2007 09:00 21,5 C 68 % 1006,5 hPa 0,0 l/m 3,5 km/h (1 Bft) E 1,00 h 0,076 mm 348 W/m 15,4 C 21,5 C 6,1 km/h (2 Bft)
11/09/2007 10:00 23,2 C 61 % 1007,1 hPa 0,0 l/m 7,3 km/h (2 Bft) E 1,00 h 0,229 mm 500 W/m 15,3 C 23,2 C 11,8 km/h (2 Bft)
11/09/2007 11:00 24,4 C 62 % 1008,1 hPa 0,0 l/m 9,5 km/h (2 Bft) E 1,00 h 0,356 mm 632 W/m 16,6 C 24,4 C 15,8 km/h (3 Bft)
11/09/2007 12:00 24,8 C 62 % 1008,6 hPa 0,0 l/m 9,7 km/h (2 Bft) E 0,82 h 0,457 mm 664 W/m 17,1 C 24,8 C 16,1 km/h (3 Bft)
11/09/2007 13:00 25,4 C 61 % 1008,9 hPa 0,0 l/m 9,8 km/h (2 Bft) E 0,78 h 0,483 mm 683 W/m 17,3 C 25,4 C 17,5 km/h (3 Bft)
11/09/2007 14:00 25,5 C 61 % 1009,4 hPa 0,0 l/m 10,7 km/h (2 Bft) E 1,00 h 0,483 mm 683 W/m 17,5 C 25,5 C 18,9 km/h (3 Bft)
11/09/2007 15:00 25,1 C 61 % 1010,0 hPa 0,0 l/m 8,3 km/h (2 Bft) E 1,00 h 0,508 mm 604 W/m 16,9 C 25,1 C 14,4 km/h (3 Bft)
11/09/2007 16:00 24,7 C 62 % 1010,4 hPa 0,0 l/m 6,7 km/h (2 Bft) E 1,00 h 0,432 mm 477 W/m 17,0 C 24,7 C 11,5 km/h (2 Bft)
11/09/2007 17:00 24,3 C 64 % 1010,9 hPa 0,0 l/m 4,7 km/h (1 Bft) E 0,90 h 0,330 mm 299 W/m 17,1 C 24,3 C 8,1 km/h (2 Bft)
11/09/2007 18:00 22,2 C 71 % 1011,2 hPa 0,0 l/m 2,5 km/h (1 Bft) E-SE 0,02 h 0,203 mm 56 W/m 16,6 C 22,2 C 4,8 km/h (1 Bft)
11/09/2007 19:00 21,3 C 73 % 1011,6 hPa 0,0 l/m 0,1 km/h (0 Bft) E-SE 0,00 h 0,051 mm 23 W/m 16,1 C 21,3 C 0,7 km/h (0 Bft)
11/09/2007 20:00 20,7 C 74 % 1011,8 hPa 0,0 l/m 0,0 km/h (0 Bft) N 0,00 h 0,025 mm 0 W/m 15,8 C 20,7 C 0,0 km/h (0 Bft)
11/09/2007 21:00 20,0 C 75 % 1012,4 hPa 0,0 l/m 1,8 km/h (1 Bft) SO 0,00 h 0,000 mm 0 W/m 15,5 C 20,0 C 2,8 km/h (1 Bft)
11/09/2007 22:00 20,4 C 74 % 1012,8 hPa 0,0 l/m 3,9 km/h (1 Bft) SO 0,00 h 0,025 mm 0 W/m 15,6 C 20,4 C 5,8 km/h (2 Bft)
11/09/2007 23:00 19,9 C 73 % 1013,2 hPa 0,0 l/m 3,1 km/h (1 Bft) O-NO 0,00 h 0,051 mm 0 W/m 15,0 C 19,9 C 4,6 km/h (1 Bft)
12/09/2007 00:00 19,8 C 67 % 1013,6 hPa 0,0 l/m 1,5 km/h (1 Bft) O-NO 0,00 h 0,051 mm 0 W/m 13,5 C 19,8 C 2,9 km/h (1 Bft)
12/09/2007 01:00 19,9 C 61 % 1013,7 hPa 0,0 l/m 2,6 km/h (1 Bft) O-NO 0,00 h 0,051 mm 0 W/m 12,3 C 19,9 C 3,9 km/h (1 Bft)
12/09/2007 02:00 19,3 C 63 % 1014,1 hPa 0,0 l/m 2,2 km/h (1 Bft) NO 0,00 h 0,051 mm 0 W/m 12,1 C 19,3 C 3,8 km/h (1 Bft)
12/09/2007 03:00 19,0 C 66 % 1014,5 hPa 0,0 l/m 1,7 km/h (1 Bft) NE 0,00 h 0,051 mm 0 W/m 12,4 C 19,0 C 3,4 km/h (1 Bft)
12/09/2007 04:00 18,9 C 70 % 1014,8 hPa 0,0 l/m 0,5 km/h (0 Bft) NE 0,00 h 0,051 mm 0 W/m 13,3 C 18,9 C 1,1 km/h (1 Bft)
12/09/2007 05:00 18,5 C 71 % 1015,1 hPa 0,0 l/m 4,8 km/h (1 Bft) N-NO 0,00 h 0,025 mm 0 W/m 13,2 C 18,5 C 6,9 km/h (2 Bft)
12/09/2007 06:00 18,7 C 67 % 1015,4 hPa 0,0 l/m 3,4 km/h (1 Bft) N-NO 0,00 h 0,051 mm 0 W/m 12,5 C 18,7 C 5,7 km/h (1 Bft)
12/09/2007 07:00 18,7 C 67 % 1016,1 hPa 0,0 l/m 1,5 km/h (1 Bft) N-NO 0,02 h 0,025 mm 22 W/m 12,5 C 18,7 C 3,0 km/h (1 Bft)
12/09/2007 08:00 19,9 C 63 % 1016,6 hPa 0,0 l/m 1,7 km/h (1 Bft) N-NO 0,00 h 0,025 mm 82 W/m 12,7 C 19,9 C 4,0 km/h (1 Bft)
12/09/2007 09:00 22,7 C 56 % 1017,1 hPa 0,0 l/m 7,6 km/h (2 Bft) NE 0,72 h 0,076 mm 283 W/m 13,5 C 22,7 C 11,2 km/h (2 Bft)
12/09/2007 10:00 24,9 C 51 % 1017,5 hPa 0,0 l/m 11,6 km/h (2 Bft) E-NE 1,00 h 0,229 mm 467 W/m 14,0 C 24,9 C 17,8 km/h (3 Bft)
12/09/2007 11:00 26,2 C 44 % 1017,8 hPa 0,0 l/m 14,9 km/h (3 Bft) E 1,00 h 0,381 mm 599 W/m 12,9 C 26,2 C 20,1 km/h (4 Bft)
12/09/2007 12:00 26,6 C 43 % 1017,8 hPa 0,0 l/m 14,6 km/h (3 Bft) E-NE 1,00 h 0,533 mm 680 W/m 13,0 C 26,6 C 21,1 km/h (4 Bft)
12/09/2007 13:00 26,2 C 45 % 1017,9 hPa 0,0 l/m 12,5 km/h (3 Bft) E 1,00 h 0,584 mm 706 W/m 13,2 C 26,2 C 19,5 km/h (3 Bft)
12/09/2007 14:00 26,2 C 44 % 1017,9 hPa 0,0 l/m 11,4 km/h (2 Bft) E 1,00 h 0,559 mm 673 W/m 13,0 C 26,2 C 17,4 km/h (3 Bft)
12/09/2007 15:00 26,1 C 46 % 1017,6 hPa 0,0 l/m 11,1 km/h (2 Bft) E 1,00 h 0,533 mm 593 W/m 13,5 C 26,1 C 17,1 km/h (3 Bft)
12/09/2007 16:00 25,5 C 43 % 1017,8 hPa 0,0 l/m 8,2 km/h (2 Bft) E 1,00 h 0,483 mm 451 W/m 12,0 C 25,5 C 12,9 km/h (3 Bft)
12/09/2007 17:00 24,7 C 46 % 1017,7 hPa 0,0 l/m 4,0 km/h (1 Bft) SE 0,97 h 0,356 mm 302 W/m 12,3 C 24,7 C 7,6 km/h (2 Bft)
12/09/2007 18:00 23,7 C 48 % 1017,8 hPa 0,0 l/m 0,7 km/h (0 Bft) SE 0,88 h 0,229 mm 149 W/m 11,9 C 23,7 C 2,4 km/h (1 Bft)
12/09/2007 19:00 21,6 C 48 % 1017,6 hPa 0,0 l/m 0,1 km/h (0 Bft) SE 0,20 h 0,102 mm 31 W/m 10,0 C 21,6 C 0,9 km/h (0 Bft)
12/09/2007 20:00 20,8 C 38 % 1018,1 hPa 0,0 l/m 1,5 km/h (1 Bft) NO 0,00 h 0,025 mm 0 W/m 5,8 C 20,8 C 2,8 km/h (1 Bft)
12/09/2007 21:00 20,5 C 39 % 1018,5 hPa 0,0 l/m 3,4 km/h (1 Bft) NO 0,00 h 0,025 mm 0 W/m 6,0 C 20,5 C 5,4 km/h (1 Bft)
12/09/2007 22:00 20,7 C 41 % 1018,7 hPa 0,0 l/m 6,0 km/h (2 Bft) O-NO 0,00 h 0,076 mm 0 W/m 7,0 C 20,7 C 7,6 km/h (2 Bft)
12/09/2007 23:00 20,2 C 42 % 1018,9 hPa 0,0 l/m 4,8 km/h (1 Bft) O-NO 0,00 h 0,102 mm 0 W/m 7,0 C 20,2 C 6,8 km/h (2 Bft)
13/09/2007 00:00 19,5 C 44 % 1019,0 hPa 0,0 l/m 4,1 km/h (1 Bft) O-NO 0,00 h 0,076 mm 0 W/m 7,0 C 19,5 C 6,2 km/h (2 Bft)
13/09/2007 01:00 18,7 C 49 % 1019,2 hPa 0,0 l/m 0,8 km/h (0 Bft) NO 0,00 h 0,076 mm 0 W/m 7,7 C 18,7 C 1,8 km/h (1 Bft)
13/09/2007 02:00 18,0 C 49 % 1018,9 hPa 0,0 l/m 2,0 km/h (1 Bft) NO 0,00 h 0,051 mm 0 W/m 7,1 C 18,0 C 3,9 km/h (1 Bft)
13/09/2007 03:00 17,8 C 49 % 1019,0 hPa 0,0 l/m 3,7 km/h (1 Bft) NO 0,00 h 0,051 mm 0 W/m 7,1 C 17,8 C 5,6 km/h (1 Bft)
13/09/2007 04:00 18,5 C 47 % 1018,7 hPa 0,0 l/m 5,5 km/h (1 Bft) NO 0,00 h 0,076 mm 0 W/m 7,0 C 18,5 C 8,1 km/h (2 Bft)
13/09/2007 05:00 19,0 C 49 % 1018,5 hPa 0,0 l/m 5,3 km/h (1 Bft) NO 0,00 h 0,076 mm 0 W/m 8,2 C 19,0 C 7,7 km/h (2 Bft)
13/09/2007 06:00 18,4 C 54 % 1018,6 hPa 0,0 l/m 2,0 km/h (1 Bft) NO 0,00 h 0,076 mm 0 W/m 8,8 C 18,4 C 3,6 km/h (1 Bft)
13/09/2007 07:00 17,6 C 55 % 1019,2 hPa 0,0 l/m 1,1 km/h (1 Bft) NO 0,03 h 0,025 mm 23 W/m 8,4 C 17,6 C 1,9 km/h (1 Bft)
13/09/2007 08:00 19,1 C 51 % 1019,6 hPa 0,0 l/m 0,7 km/h (0 Bft) NO 0,20 h 0,025 mm 97 W/m 8,8 C 19,1 C 1,9 km/h (1 Bft)
13/09/2007 09:00 23,3 C 41 % 1019,8 hPa 0,0 l/m 1,5 km/h (1 Bft) E-SE 1,00 h 0,076 mm 316 W/m 9,4 C 23,3 C 2,9 km/h (1 Bft)
13/09/2007 10:00 25,2 C 37 % 1020,3 hPa 0,0 l/m 7,3 km/h (2 Bft) E 1,00 h 0,203 mm 468 W/m 9,5 C 25,2 C 11,9 km/h (2 Bft)
13/09/2007 11:00 25,8 C 48 % 1020,6 hPa 0,0 l/m 9,9 km/h (2 Bft) E 1,00 h 0,381 mm 587 W/m 13,9 C 25,8 C 16,1 km/h (3 Bft)
13/09/2007 12:00 26,0 C 51 % 1020,6 hPa 0,0 l/m 14,5 km/h (3 Bft) E 1,00 h 0,457 mm 663 W/m 15,0 C 26,0 C 20,7 km/h (4 Bft)
13/09/2007 13:00 25,7 C 55 % 1020,6 hPa 0,0 l/m 10,7 km/h (2 Bft) E 1,00 h 0,533 mm 687 W/m 15,9 C 25,7 C 17,0 km/h (3 Bft)
13/09/2007 14:00 25,3 C 57 % 1020,7 hPa 0,0 l/m 6,5 km/h (2 Bft) E-SE 1,00 h 0,508 mm 659 W/m 16,2 C 25,3 C 11,7 km/h (2 Bft)
13/09/2007 15:00 25,6 C 57 % 1020,2 hPa 0,0 l/m 7,1 km/h (2 Bft) E 1,00 h 0,457 mm 578 W/m 16,4 C 25,6 C 12,1 km/h (2 Bft)
13/09/2007 16:00 25,2 C 55 % 1019,9 hPa 0,0 l/m 6,4 km/h (2 Bft) E-NE 1,00 h 0,406 mm 439 W/m 15,3 C 25,2 C 10,3 km/h (2 Bft)
13/09/2007 17:00 24,5 C 56 % 1019,3 hPa 0,0 l/m 4,7 km/h (1 Bft) E 0,95 h 0,330 mm 280 W/m 15,0 C 24,5 C 7,6 km/h (2 Bft)
13/09/2007 18:00 22,6 C 59 % 1019,3 hPa 0,0 l/m 0,7 km/h (0 Bft) SE 0,05 h 0,203 mm 72 W/m 14,2 C 22,6 C 2,4 km/h (1 Bft)
13/09/2007 19:00 21,2 C 63 % 1018,9 hPa 0,0 l/m 0,0 km/h (0 Bft) SE 0,00 h 0,051 mm 22 W/m 13,9 C 21,2 C 1,0 km/h (0 Bft)
13/09/2007 20:00 20,0 C 61 % 1018,6 hPa 0,0 l/m 0,0 km/h (0 Bft) N 0,00 h 0,025 mm 0 W/m 12,2 C 20,0 C 0,3 km/h (0 Bft)
13/09/2007 21:00 20,0 C 54 % 1018,9 hPa 0,0 l/m 1,5 km/h (1 Bft) S-SE 0,00 h 0,000 mm 0 W/m 10,4 C 20,0 C 2,7 km/h (1 Bft)
13/09/2007 22:00 19,6 C 56 % 1018,9 hPa 0,0 l/m 2,1 km/h (1 Bft) NO 0,00 h 0,051 mm 0 W/m 10,5 C 19,6 C 3,8 km/h (1 Bft)
13/09/2007 23:00 19,0 C 57 % 1018,9 hPa 0,0 l/m 1,6 km/h (1 Bft) NO 0,00 h 0,051 mm 0 W/m 10,3 C 19,0 C 3,2 km/h (1 Bft)
14/09/2007 00:00 18,8 C 57 % 1019,1 hPa 0,0 l/m 2,9 km/h (1 Bft) NO 0,00 h 0,051 mm 0 W/m 10,2 C 18,8 C 5,0 km/h (1 Bft)
14/09/2007 01:00 18,5 C 58 % 1019,3 hPa 0,0 l/m 5,7 km/h (1 Bft) O-NO 0,00 h 0,051 mm 0 W/m 10,1 C 18,5 C 8,9 km/h (2 Bft)
14/09/2007 02:00 18,7 C 56 % 1019,1 hPa 0,0 l/m 6,1 km/h (2 Bft) NO 0,00 h 0,076 mm 0 W/m 9,8 C 18,7 C 9,5 km/h (2 Bft)
14/09/2007 03:00 18,8 C 56 % 1018,7 hPa 0,0 l/m 5,2 km/h (1 Bft) NO 0,00 h 0,076 mm 0 W/m 9,8 C 18,8 C 8,0 km/h (2 Bft)
14/09/2007 04:00 18,6 C 57 % 1018,4 hPa 0,0 l/m 3,4 km/h (1 Bft) O-NO 0,00 h 0,076 mm 0 W/m 9,9 C 18,6 C 6,1 km/h (2 Bft)
14/09/2007 05:00 18,6 C 57 % 1018,1 hPa 0,0 l/m 4,0 km/h (1 Bft) NO 0,00 h 0,051 mm 0 W/m 9,9 C 18,6 C 5,7 km/h (1 Bft)
14/09/2007 06:00 18,4 C 57 % 1018,1 hPa 0,0 l/m 3,4 km/h (1 Bft) O-NO 0,00 h 0,051 mm 0 W/m 9,7 C 18,4 C 5,8 km/h (2 Bft)
14/09/2007 07:00 18,5 C 57 % 1018,0 hPa 0,0 l/m 3,0 km/h (1 Bft) N-NO 0,03 h 0,025 mm 21 W/m 9,8 C 18,5 C 4,7 km/h (1 Bft)
14/09/2007 08:00 19,5 C 54 % 1018,7 hPa 0,0 l/m 2,4 km/h (1 Bft) O 0,00 h 0,051 mm 93 W/m 10,0 C 19,5 C 4,1 km/h (1 Bft)
14/09/2007 09:00 20,5 C 55 % 1019,6 hPa 0,0 l/m 1,0 km/h (0 Bft) N-NE 0,18 h 0,076 mm 170 W/m 11,0 C 20,5 C 2,8 km/h (1 Bft)
14/09/2007 10:00 23,5 C 48 % 1019,3 hPa 0,0 l/m 4,2 km/h (1 Bft) NE 0,70 h 0,127 mm 364 W/m 11,7 C 23,5 C 6,9 km/h (2 Bft)
14/09/2007 11:00 24,5 C 44 % 1019,0 hPa 0,0 l/m 1,7 km/h (1 Bft) N 0,42 h 0,254 mm 427 W/m 11,2 C 24,5 C 3,6 km/h (1 Bft)
14/09/2007 12:00 27,1 C 38 % 1018,0 hPa 0,0 l/m 7,9 km/h (2 Bft) E 1,00 h 0,305 mm 665 W/m 11,3 C 27,1 C 12,2 km/h (2 Bft)
14/09/2007 13:00 26,5 C 43 % 1017,8 hPa 0,0 l/m 12,6 km/h (3 Bft) E 1,00 h 0,508 mm 677 W/m 12,9 C 26,5 C 18,7 km/h (3 Bft)
14/09/2007 14:00 25,2 C 50 % 1018,1 hPa 0,0 l/m 8,7 km/h (2 Bft) E-SE 0,77 h 0,559 mm 566 W/m 13,9 C 25,2 C 14,3 km/h (3 Bft)
14/09/2007 15:00 25,0 C 55 % 1018,4 hPa 0,0 l/m 7,7 km/h (2 Bft) E 0,92 h 0,432 mm 554 W/m 15,4 C 25,0 C 12,3 km/h (3 Bft)
14/09/2007 16:00 24,9 C 55 % 1018,5 hPa 0,0 l/m 6,8 km/h (2 Bft) E 1,00 h 0,406 mm 426 W/m 15,2 C 24,9 C 11,0 km/h (2 Bft)
14/09/2007 17:00 24,4 C 59 % 1017,9 hPa 0,0 l/m 5,7 km/h (1 Bft) E 1,00 h 0,330 mm 287 W/m 15,7 C 24,4 C 8,8 km/h (2 Bft)
14/09/2007 18:00 23,3 C 59 % 1017,1 hPa 0,0 l/m 2,6 km/h (1 Bft) E 0,63 h 0,229 mm 123 W/m 14,8 C 23,3 C 5,1 km/h (1 Bft)
14/09/2007 19:00 21,3 C 66 % 1016,9 hPa 0,0 l/m 3,5 km/h (1 Bft) S-SO 0,03 h 0,102 mm 23 W/m 14,6 C 21,3 C 4,9 km/h (1 Bft)
14/09/2007 20:00 20,0 C 69 % 1017,3 hPa 0,0 l/m 6,1 km/h (2 Bft) O-SO 0,00 h 0,025 mm 0 W/m 14,2 C 20,0 C 8,2 km/h (2 Bft)
14/09/2007 21:00 19,4 C 77 % 1017,9 hPa 0,0 l/m 2,2 km/h (1 Bft) O-SO 0,00 h 0,025 mm 0 W/m 15,3 C 19,4 C 3,4 km/h (1 Bft)
14/09/2007 22:00 18,6 C 78 % 1018,2 hPa 0,0 l/m 0,4 km/h (0 Bft) O 0,00 h 0,025 mm 0 W/m 14,8 C 18,6 C 1,0 km/h (0 Bft)
14/09/2007 23:00 17,6 C 81 % 1018,6 hPa 0,0 l/m 0,3 km/h (0 Bft) O 0,00 h 0,025 mm 0 W/m 14,2 C 17,6 C 1,8 km/h (1 Bft)
15/09/2007 00:00 17,6 C 83 % 1018,6 hPa 0,0 l/m 1,7 km/h (1 Bft) O 0,00 h 0,025 mm 0 W/m 14,7 C 17,6 C 3,4 km/h (1 Bft)
15/09/2007 01:00 17,3 C 79 % 1018,5 hPa 0,0 l/m 1,3 km/h (1 Bft) O-NO 0,00 h 0,025 mm 0 W/m 13,7 C 17,3 C 2,3 km/h (1 Bft)
15/09/2007 02:00 17,3 C 76 % 1018,7 hPa 0,0 l/m 2,6 km/h (1 Bft) O-NO 0,00 h 0,025 mm 0 W/m 13,1 C 17,3 C 4,5 km/h (1 Bft)
15/09/2007 03:00 17,0 C 78 % 1018,4 hPa 0,0 l/m 4,2 km/h (1 Bft) O-NO 0,00 h 0,025 mm 0 W/m 13,1 C 17,0 C 6,9 km/h (2 Bft)
15/09/2007 04:00 16,7 C 76 % 1018,0 hPa 0,0 l/m 3,3 km/h (1 Bft) NO 0,00 h 0,025 mm 0 W/m 12,4 C 16,7 C 5,3 km/h (1 Bft)
15/09/2007 05:00 16,9 C 70 % 1018,0 hPa 0,0 l/m 4,1 km/h (1 Bft) O-NO 0,00 h 0,025 mm 0 W/m 11,5 C 16,9 C 6,1 km/h (2 Bft)
15/09/2007 06:00 16,8 C 70 % 1017,9 hPa 0,0 l/m 2,5 km/h (1 Bft) NO 0,00 h 0,051 mm 0 W/m 11,2 C 16,8 C 4,3 km/h (1 Bft)
15/09/2007 07:00 16,9 C 71 % 1018,4 hPa 0,0 l/m 1,0 km/h (0 Bft) NO 0,03 h 0,025 mm 22 W/m 11,6 C 16,9 C 1,6 km/h (1 Bft)
15/09/2007 08:00 18,4 C 68 % 1018,7 hPa 0,0 l/m 0,9 km/h (0 Bft) NO 0,20 h 0,025 mm 94 W/m 12,3 C 18,4 C 2,6 km/h (1 Bft)
15/09/2007 09:00 21,7 C 65 % 1018,6 hPa 0,0 l/m 3,7 km/h (1 Bft) N-NO 1,00 h 0,076 mm 313 W/m 14,8 C 21,7 C 6,4 km/h (2 Bft)
15/09/2007 10:00 23,6 C 65 % 1019,1 hPa 0,0 l/m 6,7 km/h (2 Bft) E-NE 0,97 h 0,203 mm 467 W/m 16,6 C 23,6 C 10,8 km/h (2 Bft)
15/09/2007 11:00 24,4 C 58 % 1019,4 hPa 0,0 l/m 6,4 km/h (2 Bft) E 1,00 h 0,330 mm 587 W/m 15,6 C 24,4 C 10,7 km/h (2 Bft)
15/09/2007 12:00 25,6 C 54 % 1019,2 hPa 0,0 l/m 8,3 km/h (2 Bft) E-NE 1,00 h 0,406 mm 657 W/m 15,5 C 25,6 C 12,6 km/h (3 Bft)
15/09/2007 13:00 26,1 C 57 % 1018,9 hPa 0,0 l/m 9,6 km/h (2 Bft) E 1,00 h 0,483 mm 682 W/m 16,9 C 26,1 C 15,1 km/h (3 Bft)
15/09/2007 14:00 26,1 C 55 % 1018,8 hPa 0,0 l/m 8,9 km/h (2 Bft) E 1,00 h 0,508 mm 647 W/m 16,2 C 26,1 C 14,4 km/h (3 Bft)
15/09/2007 15:00 25,7 C 56 % 1018,5 hPa 0,0 l/m 7,8 km/h (2 Bft) E 1,00 h 0,483 mm 560 W/m 16,2 C 25,7 C 12,9 km/h (3 Bft)
15/09/2007 16:00 25,2 C 60 % 1018,5 hPa 0,0 l/m 6,8 km/h (2 Bft) E 1,00 h 0,406 mm 432 W/m 16,8 C 25,2 C 10,7 km/h (2 Bft)
15/09/2007 17:00 24,4 C 63 % 1018,1 hPa 0,0 l/m 5,5 km/h (1 Bft) E 1,00 h 0,330 mm 280 W/m 16,7 C 24,4 C 8,3 km/h (2 Bft)
15/09/2007 18:00 23,6 C 63 % 1017,9 hPa 0,0 l/m 2,5 km/h (1 Bft) E-NE 0,72 h 0,203 mm 128 W/m 16,0 C 23,6 C 4,5 km/h (1 Bft)
15/09/2007 19:00 21,8 C 73 % 1018,0 hPa 0,0 l/m 0,3 km/h (0 Bft) E 0,03 h 0,102 mm 22 W/m 16,7 C 21,8 C 1,5 km/h (1 Bft)
15/09/2007 20:00 20,3 C 80 % 1018,4 hPa 0,0 l/m 0,0 km/h (0 Bft) E 0,00 h 0,025 mm 0 W/m 16,7 C 20,3 C 0,5 km/h (0 Bft)
15/09/2007 21:00 19,3 C 83 % 1018,8 hPa 0,0 l/m 0,0 km/h (0 Bft) E 0,00 h 0,000 mm 0 W/m 16,4 C 19,3 C 0,2 km/h (0 Bft)
15/09/2007 22:00 18,9 C 86 % 1018,9 hPa 0,0 l/m 0,0 km/h (0 Bft) N 0,00 h 0,025 mm 0 W/m 16,5 C 18,9 C 0,1 km/h (0 Bft)
15/09/2007 23:00 18,8 C 86 % 1019,0 hPa 0,0 l/m 0,8 km/h (0 Bft) E-NE 0,00 h 0,025 mm 0 W/m 16,4 C 18,8 C 1,9 km/h (1 Bft)
16/09/2007 00:00 18,5 C 87 % 1018,9 hPa 0,0 l/m 0,3 km/h (0 Bft) NE 0,00 h 0,025 mm 0 W/m 16,3 C 18,5 C 0,8 km/h (0 Bft)
16/09/2007 01:00 18,2 C 86 % 1019,0 hPa 0,0 l/m 3,2 km/h (1 Bft) N-NO 0,00 h 0,025 mm 0 W/m 15,7 C 18,2 C 5,5 km/h (1 Bft)
16/09/2007 02:00 18,2 C 85 % 1019,0 hPa 0,0 l/m 1,0 km/h (0 Bft) N-NO 0,00 h 0,025 mm 0 W/m 15,6 C 18,2 C 2,5 km/h (1 Bft)
16/09/2007 03:00 18,1 C 84 % 1019,2 hPa 0,0 l/m 1,6 km/h (1 Bft) N 0,00 h 0,025 mm 0 W/m 15,5 C 18,1 C 2,9 km/h (1 Bft)
16/09/2007 04:00 17,6 C 85 % 1019,0 hPa 0,0 l/m 3,0 km/h (1 Bft) O-NO 0,00 h 0,025 mm 0 W/m 15,1 C 17,6 C 5,4 km/h (1 Bft)
16/09/2007 05:00 17,4 C 87 % 1019,0 hPa 0,0 l/m 2,9 km/h (1 Bft) O-NO 0,00 h 0,025 mm 0 W/m 15,2 C 17,4 C 5,3 km/h (1 Bft)
16/09/2007 06:00 17,7 C 84 % 1018,9 hPa 0,0 l/m 4,1 km/h (1 Bft) O-NO 0,00 h 0,025 mm 0 W/m 15,0 C 17,7 C 5,9 km/h (2 Bft)
16/09/2007 07:00 17,6 C 82 % 1019,2 hPa 0,0 l/m 3,2 km/h (1 Bft) O-NO 0,03 h 0,025 mm 30 W/m 14,5 C 17,6 C 4,6 km/h (1 Bft)
16/09/2007 08:00 19,1 C 78 % 1019,6 hPa 0,0 l/m 0,7 km/h (0 Bft) NE 0,00 h 0,025 mm 100 W/m 15,1 C 19,1 C 1,5 km/h (1 Bft)
16/09/2007 09:00 20,9 C 72 % 1019,8 hPa 0,0 l/m 1,7 km/h (1 Bft) N 0,02 h 0,076 mm 160 W/m 15,7 C 20,9 C 4,1 km/h (1 Bft)
16/09/2007 10:00 24,3 C 64 % 1020,0 hPa 0,0 l/m 5,6 km/h (1 Bft) E-NE 0,98 h 0,102 mm 499 W/m 17,2 C 24,3 C 9,1 km/h (2 Bft)
16/09/2007 11:00 24,6 C 67 % 1020,0 hPa 0,0 l/m 6,8 km/h (2 Bft) E 0,32 h 0,356 mm 338 W/m 18,1 C 24,6 C 11,2 km/h (2 Bft)
16/09/2007 12:00 25,2 C 67 % 1019,8 hPa 0,0 l/m 6,4 km/h (2 Bft) E 0,43 h 0,254 mm 412 W/m 18,6 C 25,2 C 10,4 km/h (2 Bft)
16/09/2007 13:00 25,6 C 66 % 1019,5 hPa 0,0 l/m 6,9 km/h (2 Bft) E 0,60 h 0,279 mm 520 W/m 18,6 C 25,6 C 11,1 km/h (2 Bft)
16/09/2007 14:00 26,6 C 60 % 1019,1 hPa 0,0 l/m 6,5 km/h (2 Bft) E 0,87 h 0,381 mm 614 W/m 18,3 C 26,6 C 10,4 km/h (2 Bft)
16/09/2007 15:00 26,2 C 64 % 1018,5 hPa 0,0 l/m 6,1 km/h (2 Bft) E 1,00 h 0,457 mm 581 W/m 18,9 C 26,2 C 10,4 km/h (2 Bft)
16/09/2007 16:00 25,1 C 72 % 1018,3 hPa 0,0 l/m 6,0 km/h (2 Bft) E 0,85 h 0,406 mm 413 W/m 19,6 C 25,1 C 10,7 km/h (2 Bft)
16/09/2007 17:00 24,8 C 72 % 1017,9 hPa 0,0 l/m 3,5 km/h (1 Bft) E-SE 0,95 h 0,279 mm 288 W/m 19,5 C 24,8 C 6,7 km/h (2 Bft)
16/09/2007 18:00 23,2 C 80 % 1017,7 hPa 0,0 l/m 2,8 km/h (1 Bft) E-SE 0,47 h 0,203 mm 102 W/m 19,5 C 23,2 C 5,5 km/h (1 Bft)
16/09/2007 19:00 21,7 C 88 % 1017,8 hPa 0,0 l/m 1,9 km/h (1 Bft) E-SE 0,00 h 0,076 mm 10 W/m 19,6 C 21,7 C 4,2 km/h (1 Bft)
16/09/2007 20:00 20,9 C 91 % 1017,7 hPa 0,0 l/m 0,0 km/h (0 Bft) N 0,00 h 0,025 mm 0 W/m 19,4 C 20,9 C 0,1 km/h (0 Bft)
16/09/2007 21:00 20,4 C 92 % 1017,8 hPa 0,0 l/m 0,2 km/h (0 Bft) E-SE 0,00 h 0,000 mm 0 W/m 19,1 C 20,4 C 0,4 km/h (0 Bft)
16/09/2007 22:00 19,9 C 93 % 1017,7 hPa 0,0 l/m 2,5 km/h (1 Bft) O-NO 0,00 h 0,025 mm 0 W/m 18,7 C 19,9 C 4,4 km/h (1 Bft)
16/09/2007 23:00 19,5 C 93 % 1017,4 hPa 0,0 l/m 4,3 km/h (1 Bft) O-NO 0,00 h 0,025 mm 0 W/m 18,4 C 19,5 C 6,2 km/h (2 Bft)
Min-Date _ 11/09/07 12/09/07 11/09/07 - 10/09/07 - - - - 12/09/07 11/09/07 10/09/07
_ Min-Heure 05:32 20:19 06:15 - 00:08 - - - - 20:19 05:32 00:11
Minimum _ 15,7 C 35 % 1005,9 hPa - 0,0 km/h (0 Bft) - - - - 4,7 C 15,7 C 0,0 km/h (0 Bft)
Max-Date _ 14/09/07 16/09/07 13/09/07 10/09/07 12/09/07 - 10/09/07 12/09/07 11/09/07 16/09/07 14/09/07 11/09/07
_ Max-Heure 12:40 23:44 13:45 00:00 12:14 - 09:03 13:00 13:19 16:29 12:40 14:10
Maximum _ 27,8 C 94 % 1020,7 hPa 0,0 l/m 22,5 km/h
E-NE (4 Bft)
- 0,02 h 0,584 mm 954 W/m 19,9 C 27,8 C 30,6 km/h
E (5 Bft)
Moyenne _ 21,2 C 65 % 1016,3 hPa #0,0 l/m 4,4 km/h (1 Bft) E #61:57 h #27,969 mm 369 W/m 13,9 C 21,2 C 7,1 km/h (2 Bft)
Roquefort les pins